Vers la page d'accueil de NAV CANADA Ouverture d'une nouvelle session Chercher sur le site AWWS Clause de non-reponsabilité To the equivalent English page Trucs et astuces FAQ Quoi de neuf sur le site Vers la section Prévisions et observations / NOTAM Vers le site web pour <<Déposer un plan de vol>> Publications et liens importants Mise à jour du profil d'usager Numéros de téléphone des FIC Mes données météo personnelles Données météo de route Données météo régionales Données météo locales Vers la section Prévisions et observations / NOTAM
Requête générée le 2019/06/15 à 22:35:19 UTC. L'information météorologique disponible à ce moment est affichée.

METAR/TAF

Si vous notez des différences entre le METAR/TAF codé et le METAR/TAF en langage clair, veuillez utiliser la version codée. Les bulletins LWIS ne sont pas décodés en langage clair.

MONTREAL/ST-HUBERT/QC    (voir Cam météo)

METAR CYHU 152200Z AUTO 23023G32KT 9SM SCT040 BKN048 OVC070 19/12 A2975 RMK SLP 6 DENSITY ALT 700FT=
METAR
LIEU
CYHU - MONTREAL/ST-HUBERT/QC
DATE - HEURE
15 JUIN 2019 - 2200 UTC
VENT
230 VRAIS @ 23  NOEUDS
RAFALES
32 NOEUDS
VISIBILITE
9 MILLES TERR.
PORTEE VISUELLE DE PISTE
METEO
NEBULOSITE
NUAGES EPARS (3/8 - 4/8) 4000  PI
NUAGES FRAGMENTES (5/8 - 7/8) 4800  PI
CIEL COUVERT 7000  PI
TEMP / PT DE ROSEE
19 C / 12 C
ALTIMETRE
29.75 PO HG
TEMPS RECENT
CISAILLEMENT

SPECI CYHU 152126Z AUTO 22029G39KT 9SM FEW049 SCT055 OVC070 18/13 A2975 RMK SLP 7 DENSITY ALT 600FT=
SPECI
LIEU
CYHU - MONTREAL/ST-HUBERT/QC
DATE - HEURE
15 JUIN 2019 - 2126 UTC
VENT
220 VRAIS @ 29  NOEUDS
RAFALES
39 NOEUDS
VISIBILITE
9 MILLES TERR.
PORTEE VISUELLE DE PISTE
METEO
NEBULOSITE
QUELQUES NUAGES (1/8 - 2/8) 4900  PI
NUAGES EPARS (3/8 - 4/8) 5500  PI
CIEL COUVERT 7000  PI
TEMP / PT DE ROSEE
18 C / 13 C
ALTIMETRE
29.75 PO HG
TEMPS RECENT
CISAILLEMENT

SPECI CYHU 152123Z AUTO 21018G27KT 9SM BKN060 OVC073 18/13 A2976 RMK SLP079 DEN TY ALT 600FT=
SPECI
LIEU
CYHU - MONTREAL/ST-HUBERT/QC
DATE - HEURE
15 JUIN 2019 - 2123 UTC
VENT
210 VRAIS @ 18  NOEUDS
RAFALES
27 NOEUDS
VISIBILITE
9 MILLES TERR.
PORTEE VISUELLE DE PISTE
METEO
NEBULOSITE
NUAGES FRAGMENTES (5/8 - 7/8) 6000  PI
CIEL COUVERT 7300  PI
TEMP / PT DE ROSEE
18 C / 13 C
ALTIMETRE
29.76 PO HG
TEMPS RECENT
CISAILLEMENT

SPECI CYHU 152113Z AUTO 22019G35KT 9SM -RA BKN060 OVC074 18/13 A2976 RMK SLP080 ENSITY ALT 600FT=
SPECI
LIEU
CYHU - MONTREAL/ST-HUBERT/QC
DATE - HEURE
15 JUIN 2019 - 2113 UTC
VENT
220 VRAIS @ 19  NOEUDS
RAFALES
35 NOEUDS
VISIBILITE
9 MILLES TERR.
PORTEE VISUELLE DE PISTE
METEO
PLUIE FAIBLE
NEBULOSITE
NUAGES FRAGMENTES (5/8 - 7/8) 6000  PI
CIEL COUVERT 7400  PI
TEMP / PT DE ROSEE
18 C / 13 C
ALTIMETRE
29.76 PO HG
TEMPS RECENT
CISAILLEMENT

SPECI CYHU 152111Z AUTO 23022G35KT 9SM BKN060 OVC074 18/14 A2976 RMK SLP081 DEN TY ALT 600FT=
SPECI
LIEU
CYHU - MONTREAL/ST-HUBERT/QC
DATE - HEURE
15 JUIN 2019 - 2111 UTC
VENT
230 VRAIS @ 22  NOEUDS
RAFALES
35 NOEUDS
VISIBILITE
9 MILLES TERR.
PORTEE VISUELLE DE PISTE
METEO
NEBULOSITE
NUAGES FRAGMENTES (5/8 - 7/8) 6000  PI
CIEL COUVERT 7400  PI
TEMP / PT DE ROSEE
18 C / 14 C
ALTIMETRE
29.76 PO HG
TEMPS RECENT
CISAILLEMENT

SPECI CYHU 152105Z AUTO 23012KT 9SM BKN060 OVC074 18/14 A2976 RMK SLP081 DENSIT ALT 500FT=
SPECI
LIEU
CYHU - MONTREAL/ST-HUBERT/QC
DATE - HEURE
15 JUIN 2019 - 2105 UTC
VENT
230 VRAIS @ 12  NOEUDS
VISIBILITE
9 MILLES TERR.
PORTEE VISUELLE DE PISTE
METEO
NEBULOSITE
NUAGES FRAGMENTES (5/8 - 7/8) 6000  PI
CIEL COUVERT 7400  PI
TEMP / PT DE ROSEE
18 C / 14 C
ALTIMETRE
29.76 PO HG
TEMPS RECENT
CISAILLEMENT

METAR CYHU 152100Z AUTO 23013KT 9SM -RA BKN060 OVC075 17/14 A2976 RMK SLP080 DE ITY ALT 500FT=
METAR
LIEU
CYHU - MONTREAL/ST-HUBERT/QC
DATE - HEURE
15 JUIN 2019 - 2100 UTC
VENT
230 VRAIS @ 13  NOEUDS
VISIBILITE
9 MILLES TERR.
PORTEE VISUELLE DE PISTE
METEO
PLUIE FAIBLE
NEBULOSITE
NUAGES FRAGMENTES (5/8 - 7/8) 6000  PI
CIEL COUVERT 7500  PI
TEMP / PT DE ROSEE
17 C / 14 C
ALTIMETRE
29.76 PO HG
TEMPS RECENT
CISAILLEMENT

SPECI CYHU 152014Z AUTO 24029G35KT 9SM -RA BKN065 BKN078 OVC100 20/13 A2975 RMK LP077 DENSITY ALT 900FT=
SPECI
LIEU
CYHU - MONTREAL/ST-HUBERT/QC
DATE - HEURE
15 JUIN 2019 - 2014 UTC
VENT
240 VRAIS @ 29  NOEUDS
RAFALES
35 NOEUDS
VISIBILITE
9 MILLES TERR.
PORTEE VISUELLE DE PISTE
METEO
PLUIE FAIBLE
NEBULOSITE
NUAGES FRAGMENTES (5/8 - 7/8) 6500  PI
NUAGES FRAGMENTES (5/8 - 7/8) 7800  PI
CIEL COUVERT 10000  PI
TEMP / PT DE ROSEE
20 C / 13 C
ALTIMETRE
29.75 PO HG
TEMPS RECENT
CISAILLEMENT

SPECI CYHU 152007Z AUTO 24017G24KT 9SM BKN070 BKN087 OVC110 21/13 A2974 RMK SLP 3 DENSITY ALT 1000FT=
SPECI
LIEU
CYHU - MONTREAL/ST-HUBERT/QC
DATE - HEURE
15 JUIN 2019 - 2007 UTC
VENT
240 VRAIS @ 17  NOEUDS
RAFALES
24 NOEUDS
VISIBILITE
9 MILLES TERR.
PORTEE VISUELLE DE PISTE
METEO
NEBULOSITE
NUAGES FRAGMENTES (5/8 - 7/8) 7000  PI
NUAGES FRAGMENTES (5/8 - 7/8) 8700  PI
CIEL COUVERT 11000  PI
TEMP / PT DE ROSEE
21 C / 13 C
ALTIMETRE
29.74 PO HG
TEMPS RECENT
CISAILLEMENT

METAR CYHU 152000Z AUTO 24005KT 230V310 9SM BKN070 OVC100 21/14 A2974 RMK SLP07 DENSITY ALT 1000FT=
METAR
LIEU
CYHU - MONTREAL/ST-HUBERT/QC
DATE - HEURE
15 JUIN 2019 - 2000 UTC
VENT
240 VRAIS @ 5  NOEUDS
VARIATION
230 <-> 310  DEG
VISIBILITE
9 MILLES TERR.
PORTEE VISUELLE DE PISTE
METEO
NEBULOSITE
NUAGES FRAGMENTES (5/8 - 7/8) 7000  PI
CIEL COUVERT 10000  PI
TEMP / PT DE ROSEE
21 C / 14 C
ALTIMETRE
29.74 PO HG
TEMPS RECENT
CISAILLEMENT

TAF AMD CYHU 152013Z 1520/1618 24020G30KT P6SM OVC070 TEMPO 1520/1522 P6SM -RA FM152200 23020G30KT P6SM -RA OVC040 TEMPO 1522/1602 4SM -RA BR OVC020 PROB30 1522/1602 1SM SHRA BR BKN007 OVC015 FM160200 26010G20KT P6SM BKN120 FM160400 26010KT P6SM FEW040 FM160700 26008KT P6SM FEW040 PROB30 1607/1611 1SM BR FM161400 27005KT P6SM FEW030 RMK FCST BASED ON AUTO OBS. NXT FCST BY 160000Z=
TAF MODIFIE
LIEU

CYHU - MONTREAL/ST-HUBERT/QC
VALIDITE [UTC]
15 JUN - 2013 à
16 JUN - 1800
 
PERIODES
[UTC]
VENT
[DEGRES VRAIS]
VISIBILITE
[MILLES TERR.]
METEO
NEBULOSITE
[PIEDS AGL]
 
15 JUN - 2000 à
15 JUN - 2200
240 @ 20 NOEUDS
RAFALES 30 NOEUDS
6+
---
7000 CIEL COUVERT
CHANGEMENTS TEMPORAIRES
15 JUN - 2000 à
15 JUN - 2200
 
6+
PLUIE FAIBLE
 
 
15 JUN - 2200 à
16 JUN - 0200
230 @ 20 NOEUDS
RAFALES 30 NOEUDS
6+
PLUIE FAIBLE
4000 CIEL COUVERT
CHANGEMENTS TEMPORAIRES
15 JUN - 2200 à
16 JUN - 0200
 
4
PLUIE FAIBLE
BRUME
2000 CIEL COUVERT
30% PROBABILITE
15 JUN - 2200 à
16 JUN - 0200
 
1
AVERSE DE PLUIE MODEREE
BRUME
700 FRAGMENTES
1500 CIEL COUVERT
 
16 JUN - 0200 à
16 JUN - 0400
260 @ 10 NOEUDS
RAFALES 20 NOEUDS
6+
---
12000 FRAGMENTES
 
16 JUN - 0400 à
16 JUN - 0700
260 @ 10 NOEUDS
6+
---
4000 QUELQUES
 
16 JUN - 0700 à
16 JUN - 1400
260 @ 8 NOEUDS
6+
---
4000 QUELQUES
30% PROBABILITE
16 JUN - 0700 à
16 JUN - 1100
 
1
BRUME
 
 
16 JUN - 1400 à
16 JUN - 1800
270 @ 5 NOEUDS
6+
---
3000 QUELQUES
REMARQUES
LA PREVISION EST FONDEE SUR DES OBSERVATIONS AUTOMATISEES - LA PREVISION SUIVANTE SERA EMISE POUR 0000 UTC LE 16


Votre heure Heure UTC
Données météorologiques fournies par Environnement Canada et NAV CANADA